ADDS METAR Data INFO
IDs: Format: Raw Decoded Include TAF

Data at: 0213 UTC 19 Jul 2018

KLBB 190153Z 15009KT 10SM FEW110 FEW150 FEW300 34/09 A2995 RMK AO2 SLP077 CB DSNT NW MOV SE T03390094
KLBB 190053Z 15014KT 10SM FEW110 FEW150 37/09 A2994 RMK AO2 SLP075 CB DSNT NW STNRY T03670094
KLBB 182353Z 14013KT 10SM FEW110 FEW140 38/09 A2994 RMK AO2 SLP075 T03780094 10394 20361 56017
KLBB 182253Z 16013G16KT 10SM FEW100 FEW120 38/09 A2996 RMK AO2 SLP079 CB DSNT N STNRY T03830094
KLBB 182153Z COR VRB06G15KT 10SM FEW110 39/09 A2997 RMK AO2 SLP082 T03890089
KLBB 182053Z VRB05G16KT 10SM FEW100 38/09 A3000 RMK AO2 SLP091 T03830089 58020
KLBB 181953Z 23011KT 10SM FEW090 38/10 A3002 RMK AO2 SLP099 T03830100
KLBB 181853Z 21006KT 10SM FEW085 36/10 A3004 RMK AO2 SLP109 T03610100
KLBB 181753Z 19011KT 10SM FEW085 37/12 A3006 RMK AO2 SLP114 T03670117 10367 20228 58011
KLBB 181653Z 23014KT 10SM CLR 35/12 A3008 RMK AO2 SLP121 T03500117
KLBB 181553Z 22013KT 10SM FEW250 33/12 A3009 RMK AO2 SLP125 T03280117
KLBB 181453Z 23016KT 10SM FEW250 31/11 A3010 RMK AO2 SLP129 T03060111 53001
KLBB 181353Z 23012KT 10SM FEW250 28/11 A3010 RMK AO2 SLP129 T02830111
KLBB 181253Z 25008KT 10SM FEW250 24/12 A3009 RMK AO2 SLP128 T02440117
KLBB 181153Z 24005KT 10SM FEW250 23/11 A3009 RMK AO2 SLP130 T02280111 10278 20228 51004
KLBB 181053Z 24008KT 10SM FEW250 24/11 A3009 RMK AO2 SLP127 T02440106
KLBB 180953Z 24010KT 10SM CLR 27/10 A3010 RMK AO2 SLP128 T02670100
KLBB 180853Z 23009KT 10SM CLR 27/10 A3008 RMK AO2 SLP122 T02670100 55004
KLBB 180753Z 21007KT 10SM CLR 26/10 A3007 RMK AO2 SLP122 T02560100
KLBB 180653Z 20006KT 10SM CLR 26/10 A3009 RMK AO2 SLP129 T02560100
KLBB 180553Z 19007KT 10SM CLR 27/10 A3010 RMK AO2 SLP129 T02720100 10356 20267 403670244 51011
KLBB 180453Z 18008KT 10SM CLR 28/09 A3009 RMK AO2 SLP125 T02830094
KLBB 180353Z 18008KT 10SM FEW250 30/09 A3008 RMK AO2 SLP123 T03000094
KLBB 180253Z 18007KT 10SM FEW250 31/09 A3006 RMK AO2 SLP117 T03110094 55001
KLBB 180153Z 17007KT 10SM FEW250 33/08 A3006 RMK AO2 SLP115 T03280078
KLBB 180053Z 16009KT 10SM FEW250 35/06 A3006 RMK AO2 SLP116 T03500061
KLBB 172353Z 18009KT 10SM FEW100 36/05 A3007 RMK AO2 SLP118 T03560050 10367 20333 56011
KLBB 172253Z 18011G14KT 10SM FEW100 36/08 A3007 RMK AO2 SLP121 T03610078
KLBB 172153Z 18006KT 10SM FEW100 36/09 A3009 RMK AO2 SLP125 T03560089
KLBB 172053Z 19011G23KT 10SM FEW100 36/10 A3010 RMK AO2 SLP130 T03610100 58017
KLBB 171953Z COR VRB03KT 10SM FEW090 34/11 A3012 RMK AO2 SLP139 T03440111
KLBB 171853Z 00000KT 10SM SCT080 34/12 A3014 RMK AO2 SLP144 T03440117
KLBB 171753Z VRB06KT 10SM FEW075 FEW300 34/13 A3016 RMK AO2 SLP152 T03390133 10344 20244 58004
KLBB 171653Z 26009KT 10SM SCT300 33/14 A3017 RMK AO2 SLP156 T03330139
KLBB 171553Z 24011KT 10SM FEW300 32/14 A3017 RMK AO2 SLP156 T03170139
KLBB 171453Z 22016KT 10SM FEW300 30/14 A3017 RMK AO2 SLP156 T03000139 51015